createdAt,value
2018-08-08T00:01:33.326Z,2.20
2018-08-08T00:04:01.350Z,2.00
2018-08-08T00:06:29.366Z,2.33
2018-08-08T00:08:57.402Z,1.90
2018-08-08T00:11:25.446Z,1.63
2018-08-08T00:13:53.461Z,2.37
2018-08-08T00:16:21.482Z,2.17
2018-08-08T00:18:49.506Z,2.23
2018-08-08T00:21:17.513Z,2.47
2018-08-08T00:23:45.531Z,2.37
2018-08-08T00:26:13.596Z,1.50
2018-08-08T00:28:41.615Z,2.20
2018-08-08T00:31:09.613Z,2.13
2018-08-08T00:33:37.646Z,1.73
2018-08-08T00:36:05.722Z,1.80
2018-08-08T00:38:33.748Z,1.60
2018-08-08T00:41:01.791Z,2.10
2018-08-08T00:43:29.793Z,2.10
2018-08-08T00:45:57.810Z,2.30
2018-08-08T00:48:25.838Z,2.03
2018-08-08T00:50:53.854Z,2.23
2018-08-08T00:53:21.859Z,2.20
2018-08-08T00:55:49.894Z,2.30
2018-08-08T00:58:17.904Z,2.00
2018-08-08T01:00:46.950Z,2.23
2018-08-08T01:03:16.810Z,2.23
2018-08-08T01:05:44.843Z,2.10
2018-08-08T01:08:12.936Z,2.10
2018-08-08T01:10:40.915Z,2.03
2018-08-08T01:13:08.938Z,2.53
2018-08-08T01:15:36.978Z,1.90
2018-08-08T01:18:05.634Z,2.33
2018-08-08T01:20:33.658Z,2.10
2018-08-08T01:23:01.678Z,1.90
2018-08-08T01:25:29.686Z,2.63
2018-08-08T01:27:57.749Z,1.90
2018-08-08T01:30:25.783Z,1.60
2018-08-08T01:32:53.764Z,2.00
2018-08-08T01:35:21.806Z,1.97
2018-08-08T01:37:49.809Z,2.10
2018-08-08T01:40:18.901Z,2.40
2018-08-08T01:42:47.184Z,2.50
2018-08-08T01:45:16.424Z,2.47
2018-08-08T01:47:44.437Z,2.30
2018-08-08T01:50:13.749Z,1.77
2018-08-08T01:52:41.915Z,2.27
2018-08-08T01:55:11.196Z,2.23
2018-08-08T01:57:39.209Z,2.13
2018-08-08T02:00:11.099Z,2.10
2018-08-08T02:02:39.632Z,2.10
2018-08-08T02:05:07.890Z,4.47
2018-08-08T02:07:35.934Z,3.33
2018-08-08T02:10:05.788Z,2.20
2018-08-08T02:12:33.804Z,1.87
2018-08-08T02:15:01.853Z,2.40
2018-08-08T02:17:29.862Z,2.50
2018-08-08T02:19:57.864Z,2.03
2018-08-08T02:22:25.857Z,2.30
2018-08-08T02:24:53.853Z,2.40
2018-08-08T02:27:21.869Z,2.30
2018-08-08T02:29:49.909Z,2.33
2018-08-08T02:32:17.917Z,2.30
2018-08-08T02:34:45.934Z,2.20
2018-08-08T02:37:13.995Z,2.40
2018-08-08T02:39:41.954Z,1.93
2018-08-08T02:42:09.962Z,2.30
2018-08-08T02:44:37.974Z,2.77
2018-08-08T02:47:05.995Z,2.73
2018-08-08T02:49:34.056Z,2.17
2018-08-08T02:52:02.058Z,2.07
2018-08-08T02:54:30.057Z,2.10
2018-08-08T02:56:58.196Z,2.20
2018-08-08T02:59:26.185Z,2.40
2018-08-08T03:01:54.209Z,2.40
2018-08-08T03:04:22.185Z,2.77
2018-08-08T03:06:50.210Z,2.27
2018-08-08T03:09:18.207Z,2.50
2018-08-08T03:11:46.233Z,2.27
2018-08-08T03:14:14.248Z,2.23
2018-08-08T03:16:42.257Z,2.20
2018-08-08T03:19:10.261Z,2.43
2018-08-08T03:21:38.274Z,2.17
2018-08-08T03:24:06.305Z,2.73
2018-08-08T03:26:34.316Z,2.40
2018-08-08T03:29:02.304Z,2.50
2018-08-08T03:31:30.320Z,2.33
2018-08-08T03:33:58.333Z,2.57
2018-08-08T03:36:26.423Z,2.43
2018-08-08T03:38:54.379Z,2.40
2018-08-08T03:41:22.383Z,2.73
2018-08-08T03:43:50.428Z,2.27
2018-08-08T03:46:18.463Z,2.10
2018-08-08T03:48:46.489Z,2.23
2018-08-08T03:51:14.476Z,2.03
2018-08-08T03:53:42.473Z,2.70
2018-08-08T03:56:10.493Z,2.53
2018-08-08T03:58:38.505Z,2.70
2018-08-08T04:01:06.521Z,2.40
2018-08-08T04:03:34.555Z,2.37
2018-08-08T04:06:02.557Z,2.70
2018-08-08T04:08:36.880Z,2.77
2018-08-08T04:11:04.924Z,2.43
2018-08-08T04:13:32.934Z,3.50
2018-08-08T04:16:00.949Z,2.60
2018-08-08T04:18:28.947Z,2.30
2018-08-08T04:20:56.941Z,2.40
2018-08-08T04:23:24.957Z,2.80
2018-08-08T04:25:52.959Z,2.27
2018-08-08T04:28:20.973Z,2.57
2018-08-08T04:30:48.999Z,2.73
2018-08-08T04:33:17.030Z,2.93
2018-08-08T04:35:45.036Z,2.83
2018-08-08T04:38:13.056Z,2.30
2018-08-08T04:40:41.118Z,2.57
2018-08-08T04:43:09.156Z,2.80
2018-08-08T04:45:37.168Z,2.80
2018-08-08T04:48:05.185Z,2.60
2018-08-08T04:50:33.186Z,3.20
2018-08-08T04:53:01.200Z,2.60
2018-08-08T04:55:29.210Z,3.00
2018-08-08T04:57:57.237Z,2.80
2018-08-08T05:00:25.238Z,3.37
2018-08-08T05:02:53.347Z,3.17
2018-08-08T05:05:21.357Z,3.17
2018-08-08T05:07:49.409Z,3.10
2018-08-08T05:10:17.457Z,3.00
2018-08-08T05:12:45.539Z,2.80
2018-08-08T05:15:15.515Z,2.80
2018-08-08T05:17:44.033Z,4.17
2018-08-08T05:20:12.904Z,3.33
2018-08-08T05:22:40.842Z,3.50
2018-08-08T05:25:09.042Z,3.57
2018-08-08T05:27:37.066Z,3.20
2018-08-08T05:30:11.032Z,2.97
2018-08-08T05:32:39.431Z,3.20
2018-08-08T05:35:07.833Z,3.70
2018-08-08T05:37:35.900Z,3.40
2018-08-08T05:40:05.194Z,2.77
2018-08-08T05:42:33.212Z,3.40
2018-08-08T05:45:02.260Z,3.30
2018-08-08T05:47:30.277Z,3.80
2018-08-08T05:49:58.278Z,3.90
2018-08-08T05:52:26.292Z,3.27
2018-08-08T05:54:54.306Z,3.40
2018-08-08T05:57:22.322Z,3.67
2018-08-08T05:59:50.328Z,3.90
2018-08-08T06:02:18.345Z,3.70
2018-08-08T06:04:46.358Z,3.60
2018-08-08T06:07:14.403Z,4.40
2018-08-08T06:09:42.431Z,3.97
2018-08-08T06:12:10.434Z,4.07
2018-08-08T06:14:38.465Z,3.60
2018-08-08T06:17:06.522Z,4.00
2018-08-08T06:19:34.536Z,4.33
2018-08-08T06:22:02.537Z,4.13
2018-08-08T06:24:30.557Z,4.00
2018-08-08T06:26:58.593Z,4.10
2018-08-08T06:29:26.633Z,4.20
2018-08-08T06:31:54.636Z,4.33
2018-08-08T06:34:22.645Z,4.93
2018-08-08T06:36:50.628Z,4.20
2018-08-08T06:39:18.641Z,4.10
2018-08-08T06:41:46.700Z,4.10
2018-08-08T06:44:14.746Z,4.80
2018-08-08T06:46:42.754Z,4.93
2018-08-08T06:49:10.765Z,4.60
2018-08-08T06:51:38.761Z,4.50
2018-08-08T06:54:07.133Z,4.50
2018-08-08T06:56:35.181Z,5.60
2018-08-08T06:59:06.181Z,4.70
2018-08-08T07:01:34.280Z,5.73
2018-08-08T07:04:02.342Z,5.00
2018-08-08T07:06:30.358Z,4.47
2018-08-08T07:08:58.399Z,5.30
2018-08-08T07:11:26.414Z,5.20
2018-08-08T07:13:54.440Z,5.40
2018-08-08T07:16:22.450Z,4.43
2018-08-08T07:18:50.469Z,4.57
2018-08-08T07:21:18.473Z,4.37
2018-08-08T07:23:46.481Z,6.00
2018-08-08T07:26:14.497Z,5.33
2018-08-08T07:28:42.501Z,4.90
2018-08-08T07:31:10.540Z,4.77
2018-08-08T07:33:38.549Z,4.80
2018-08-08T07:36:06.558Z,4.43
2018-08-08T07:38:34.560Z,5.00
2018-08-08T07:41:02.560Z,5.43
2018-08-08T07:43:30.590Z,4.80
2018-08-08T07:45:58.641Z,5.27
2018-08-08T07:48:26.653Z,4.60
2018-08-08T07:50:54.654Z,5.10
2018-08-08T07:53:22.676Z,5.47
2018-08-08T07:55:50.681Z,5.67
2018-08-08T07:58:18.832Z,5.80
2018-08-08T08:00:46.845Z,6.07
2018-08-08T08:03:14.900Z,5.23
2018-08-08T08:05:42.973Z,5.80
2018-08-08T08:08:10.973Z,5.33
2018-08-08T08:10:39.009Z,5.53
2018-08-08T08:13:07.307Z,5.93
2018-08-08T08:15:35.346Z,4.93
2018-08-08T08:18:03.387Z,5.80
2018-08-08T08:20:31.390Z,5.73
2018-08-08T08:22:59.422Z,5.90
2018-08-08T08:25:27.441Z,5.80
2018-08-08T08:27:55.605Z,5.83
2018-08-08T08:30:23.642Z,6.63
2018-08-08T08:32:51.673Z,5.87
2018-08-08T08:35:19.684Z,6.40
2018-08-08T08:37:47.733Z,6.03
2018-08-08T08:40:15.780Z,6.27
2018-08-08T08:42:44.027Z,6.80
2018-08-08T08:45:12.133Z,5.53
2018-08-08T08:47:40.148Z,5.67
2018-08-08T08:50:08.407Z,5.77
2018-08-08T08:52:36.362Z,6.23
2018-08-08T08:55:05.241Z,5.90
2018-08-08T08:57:33.237Z,6.50
2018-08-08T09:00:01.273Z,5.50
2018-08-08T09:02:29.297Z,5.80
2018-08-08T09:04:57.317Z,6.50
2018-08-08T09:09:59.888Z,6.70
2018-08-08T09:12:27.899Z,6.47
2018-08-08T09:14:55.961Z,6.53
2018-08-08T09:17:23.966Z,5.80
2018-08-08T09:19:51.965Z,6.10
2018-08-08T09:22:19.981Z,6.63
2018-08-08T09:24:47.993Z,6.27
2018-08-08T09:27:16.056Z,6.57
2018-08-08T09:29:49.544Z,6.80
2018-08-08T09:32:17.553Z,6.80
2018-08-08T09:34:45.567Z,6.30
2018-08-08T09:37:13.577Z,6.73
2018-08-08T09:39:41.609Z,7.23
2018-08-08T09:42:09.655Z,6.60
2018-08-08T09:44:37.662Z,7.17
2018-08-08T09:47:05.815Z,7.13
2018-08-08T09:49:34.037Z,7.60
2018-08-08T09:52:02.809Z,7.80
2018-08-08T09:54:30.835Z,7.73
2018-08-08T09:56:58.836Z,7.73
2018-08-08T09:59:26.847Z,7.00
2018-08-08T10:02:00.219Z,7.30
2018-08-08T10:04:33.128Z,6.77
2018-08-08T10:07:02.245Z,7.60
2018-08-08T10:09:30.325Z,7.10
2018-08-08T10:11:58.370Z,6.97
2018-08-08T10:14:26.385Z,7.87
2018-08-08T10:16:54.403Z,7.23
2018-08-08T10:19:22.617Z,7.40
2018-08-08T10:21:50.676Z,6.70
2018-08-08T10:24:18.679Z,7.30
2018-08-08T10:26:47.014Z,6.63
2018-08-08T10:29:15.006Z,7.40
2018-08-08T10:31:43.001Z,7.10
2018-08-08T10:34:11.130Z,6.97
2018-08-08T10:36:39.142Z,6.00
2018-08-08T10:39:09.238Z,6.30
2018-08-08T10:41:37.229Z,7.23
2018-08-08T10:44:05.538Z,5.87
2018-08-08T10:46:33.541Z,7.00
2018-08-08T10:49:01.548Z,6.20
2018-08-08T10:51:29.540Z,6.50
2018-08-08T10:53:57.712Z,6.60
2018-08-08T10:56:26.147Z,7.70
2018-08-08T10:58:54.057Z,6.53
2018-08-08T11:01:22.117Z,5.73
2018-08-08T11:03:50.125Z,6.50
2018-08-08T11:06:18.159Z,6.03
2018-08-08T11:08:46.157Z,6.83
2018-08-08T11:11:14.179Z,6.33
2018-08-08T11:13:42.198Z,6.63
2018-08-08T11:16:10.211Z,6.63
2018-08-08T11:18:38.224Z,5.97
2018-08-08T11:21:06.325Z,6.90
2018-08-08T11:23:34.349Z,6.27
2018-08-08T11:26:02.432Z,6.90
2018-08-08T11:28:30.490Z,6.13
2018-08-08T11:30:58.547Z,7.20
2018-08-08T11:33:26.540Z,5.87
2018-08-08T11:35:54.588Z,6.03
2018-08-08T11:38:22.579Z,6.27
2018-08-08T11:40:50.590Z,5.97
2018-08-08T11:43:18.601Z,5.93
2018-08-08T11:45:46.604Z,5.60
2018-08-08T11:48:14.601Z,5.73
2018-08-08T11:50:42.610Z,6.20
2018-08-08T11:53:10.610Z,6.40
2018-08-08T11:55:38.617Z,5.97
2018-08-08T11:58:06.636Z,5.87
2018-08-08T12:00:34.638Z,5.70
2018-08-08T12:03:02.644Z,6.20
2018-08-08T12:05:30.652Z,6.00
2018-08-08T12:07:58.654Z,5.90
2018-08-08T12:10:26.668Z,6.00
2018-08-08T12:12:54.680Z,5.80
2018-08-08T12:15:22.725Z,6.47
2018-08-08T12:17:50.770Z,5.70
2018-08-08T12:20:19.361Z,5.27
2018-08-08T12:22:47.575Z,5.00
2018-08-08T12:25:15.440Z,5.70
2018-08-08T12:27:43.458Z,5.90
2018-08-08T12:30:11.736Z,5.90
2018-08-08T12:32:40.437Z,6.13
2018-08-08T12:35:08.880Z,5.60
2018-08-08T12:37:36.918Z,5.47
2018-08-08T12:40:05.481Z,5.30
2018-08-08T12:42:33.541Z,5.60
2018-08-08T12:45:01.555Z,4.80
2018-08-08T12:47:29.549Z,5.23
2018-08-08T12:49:57.585Z,4.90
2018-08-08T12:52:25.581Z,4.53
2018-08-08T12:54:53.594Z,5.00
2018-08-08T12:57:21.614Z,5.90
2018-08-08T12:59:49.602Z,5.10
2018-08-08T13:02:17.604Z,5.57
2018-08-08T13:04:45.625Z,5.53
2018-08-08T13:07:13.626Z,5.10
2018-08-08T13:09:41.623Z,4.90
2018-08-08T13:12:09.641Z,4.90
2018-08-08T13:14:37.636Z,5.00
2018-08-08T13:17:05.640Z,5.30
2018-08-08T13:19:33.646Z,5.00
2018-08-08T13:22:01.644Z,5.20
2018-08-08T13:24:29.638Z,5.30
2018-08-08T13:26:57.649Z,5.47
2018-08-08T13:29:26.440Z,5.73
2018-08-08T13:31:54.457Z,4.87
2018-08-08T13:34:22.462Z,5.77
2018-08-08T13:36:50.487Z,5.40
2018-08-08T13:39:18.555Z,5.93
2018-08-08T13:41:46.530Z,5.87
2018-08-08T13:44:14.536Z,5.03
2018-08-08T13:46:42.546Z,5.27
2018-08-08T13:49:10.533Z,5.20
2018-08-08T13:51:38.541Z,5.93
2018-08-08T13:54:06.574Z,5.37
2018-08-08T13:56:34.582Z,5.00
2018-08-08T13:59:02.577Z,5.27
2018-08-08T14:01:30.626Z,5.07
2018-08-08T14:03:58.578Z,5.80
2018-08-08T14:06:26.679Z,4.77
2018-08-08T14:08:54.669Z,5.60
2018-08-08T14:11:22.672Z,5.00
2018-08-08T14:13:50.706Z,5.10
2018-08-08T14:16:18.723Z,5.40
2018-08-08T14:18:46.761Z,4.80
2018-08-08T14:21:14.773Z,4.30
2018-08-08T14:23:42.770Z,4.80
2018-08-08T14:26:10.773Z,5.00
2018-08-08T14:28:38.799Z,4.50
2018-08-08T14:31:06.901Z,5.07
2018-08-08T14:33:34.897Z,4.97
2018-08-08T14:36:02.901Z,5.00
2018-08-08T14:38:30.893Z,4.90
2018-08-08T14:40:58.914Z,5.90
2018-08-08T14:43:26.923Z,4.60
2018-08-08T14:45:54.926Z,5.10
2018-08-08T14:48:22.939Z,5.07
2018-08-08T14:50:51.009Z,5.10
2018-08-08T14:53:18.962Z,4.87
2018-08-08T14:55:46.960Z,4.90
2018-08-08T14:58:14.969Z,4.57
2018-08-08T15:00:42.981Z,4.93
2018-08-08T15:03:10.985Z,5.07
2018-08-08T15:05:38.985Z,5.10
2018-08-08T15:08:07.008Z,4.73
2018-08-08T15:10:35.002Z,4.40
2018-08-08T15:13:03.027Z,4.60
2018-08-08T15:15:31.052Z,5.57
2018-08-08T15:17:59.084Z,5.10
2018-08-08T15:20:27.084Z,4.90
2018-08-08T15:22:55.145Z,4.90
2018-08-08T15:25:23.137Z,5.17
2018-08-08T15:27:51.138Z,6.03
2018-08-08T15:30:19.155Z,5.67
2018-08-08T15:32:47.187Z,4.97
2018-08-08T15:35:15.202Z,5.07
2018-08-08T15:37:43.734Z,5.43
2018-08-08T15:40:11.504Z,5.70
2018-08-08T15:42:39.525Z,5.50
2018-08-08T15:45:09.161Z,4.90
2018-08-08T15:47:37.222Z,5.00
2018-08-08T15:50:10.293Z,4.60
2018-08-08T15:52:38.349Z,5.40
2018-08-08T15:55:06.859Z,5.33
2018-08-08T15:57:35.223Z,5.57
2018-08-08T16:00:03.745Z,5.10
2018-08-08T16:02:31.807Z,5.00
2018-08-08T16:04:59.756Z,4.53
2018-08-08T16:07:27.768Z,5.20
2018-08-08T16:09:55.872Z,6.20
2018-08-08T16:12:23.878Z,5.53
2018-08-08T16:14:51.884Z,8.20
2018-08-08T16:17:19.981Z,7.43
2018-08-08T16:19:47.988Z,8.57
2018-08-08T16:22:16.000Z,8.23
2018-08-08T16:24:44.007Z,7.93
2018-08-08T16:27:12.006Z,7.87
2018-08-08T16:29:39.996Z,7.40
2018-08-08T16:32:07.993Z,7.83
2018-08-08T16:34:36.039Z,7.47
2018-08-08T16:37:04.050Z,8.13
2018-08-08T16:39:32.089Z,9.80
2018-08-08T16:42:00.399Z,9.20
2018-08-08T16:44:28.447Z,10.03
2018-08-08T16:46:56.448Z,9.27
2018-08-08T16:49:24.460Z,8.77
2018-08-08T16:51:52.481Z,8.37
2018-08-08T16:54:20.489Z,8.10
2018-08-08T16:56:48.540Z,7.70
2018-08-08T16:59:16.567Z,7.17
2018-08-08T17:01:44.591Z,8.10
2018-08-08T17:04:12.618Z,7.20
2018-08-08T17:06:40.638Z,8.40
2018-08-08T17:09:09.701Z,7.93
2018-08-08T17:11:37.713Z,7.97
2018-08-08T17:14:05.812Z,8.17
2018-08-08T17:16:33.926Z,8.40
2018-08-08T17:19:01.952Z,8.73
2018-08-08T17:21:29.956Z,9.13
2018-08-08T17:23:59.753Z,8.53
2018-08-08T17:26:27.834Z,8.80
2018-08-08T17:28:55.854Z,9.40
2018-08-08T17:31:23.916Z,10.60
2018-08-08T17:33:51.912Z,10.50
2018-08-08T17:36:20.004Z,9.37
2018-08-08T17:38:48.131Z,9.60
2018-08-08T17:41:16.140Z,9.93
2018-08-08T17:43:44.943Z,9.83
2018-08-08T17:46:12.489Z,9.57
2018-08-08T17:48:40.517Z,9.63
2018-08-08T17:51:08.585Z,9.50
2018-08-08T17:53:36.727Z,7.27
2018-08-08T17:56:04.768Z,6.00
2018-08-08T17:58:32.769Z,5.83
2018-08-08T18:01:00.768Z,5.30
2018-08-08T18:03:28.795Z,6.90
2018-08-08T18:05:56.796Z,5.63
2018-08-08T18:08:24.891Z,5.10
2018-08-08T18:10:52.888Z,5.80
2018-08-08T18:13:20.942Z,5.83
2018-08-08T18:15:48.946Z,6.00
2018-08-08T18:18:17.042Z,5.30
2018-08-08T18:20:45.053Z,6.60
2018-08-08T18:23:13.069Z,7.30
2018-08-08T18:25:41.080Z,8.33
2018-08-08T18:28:09.346Z,7.90
2018-08-08T18:30:38.178Z,7.50
2018-08-08T18:33:06.297Z,6.77
2018-08-08T18:35:34.501Z,7.80
2018-08-08T18:38:02.386Z,7.40
2018-08-08T18:40:30.356Z,8.40
2018-08-08T18:42:58.189Z,8.47
2018-08-08T18:45:26.169Z,7.27
2018-08-08T18:47:54.081Z,7.37
2018-08-08T18:50:23.149Z,8.73
2018-08-08T18:52:50.973Z,8.40
2018-08-08T18:55:18.958Z,8.13
2018-08-08T18:57:46.867Z,7.30
2018-08-08T19:00:14.872Z,6.87
2018-08-08T19:02:42.840Z,5.87
2018-08-08T19:05:10.912Z,8.07
2018-08-08T19:07:38.735Z,6.80
2018-08-08T19:10:07.070Z,6.90
2018-08-08T19:12:35.679Z,6.47
2018-08-08T19:15:03.989Z,6.90
2018-08-08T19:17:31.828Z,5.73
2018-08-08T19:20:00.834Z,6.43
2018-08-08T19:22:28.712Z,6.87
2018-08-08T19:24:56.552Z,7.40
2018-08-08T19:27:24.734Z,7.17
2018-08-08T19:29:52.701Z,8.90
2018-08-08T19:32:20.591Z,9.63
2018-08-08T19:34:48.782Z,9.10
2018-08-08T19:37:16.737Z,8.07
2018-08-08T19:39:44.616Z,6.70
2018-08-08T19:42:12.498Z,7.87
2018-08-08T19:44:40.555Z,7.60
2018-08-08T19:47:09.437Z,7.97
2018-08-08T19:49:37.454Z,8.30
2018-08-08T19:52:05.537Z,7.23
2018-08-08T19:54:33.513Z,6.57
2018-08-08T19:57:01.362Z,5.90
2018-08-08T19:59:29.217Z,6.40
2018-08-08T20:01:57.061Z,5.70
2018-08-08T20:04:25.004Z,7.40
2018-08-08T20:06:52.865Z,7.27
2018-08-08T20:09:20.727Z,8.20
2018-08-08T20:11:48.913Z,7.07
2018-08-08T20:14:16.824Z,7.70
2018-08-08T20:16:44.657Z,6.70
2018-08-08T20:19:12.707Z,21.93
2018-08-08T20:21:40.657Z,7.67
2018-08-08T20:24:08.798Z,8.73
2018-08-08T20:26:36.799Z,7.90
2018-08-08T20:29:04.667Z,7.53
2018-08-08T20:31:32.489Z,7.53
2018-08-08T20:34:00.825Z,7.53
2018-08-08T20:36:28.791Z,8.40
2018-08-08T20:38:56.617Z,8.00
2018-08-08T20:41:24.448Z,8.50
2018-08-08T20:43:52.300Z,6.90
2018-08-08T20:46:20.169Z,8.33
2018-08-08T20:48:48.088Z,8.20
2018-08-08T20:51:15.943Z,7.97
2018-08-08T20:53:43.795Z,7.70
2018-08-08T20:56:11.585Z,7.17
2018-08-08T20:58:39.444Z,7.20
2018-08-08T21:01:07.275Z,7.40
2018-08-08T21:03:35.138Z,7.37
2018-08-08T21:06:03.189Z,15.97
2018-08-08T21:08:31.008Z,8.03
2018-08-08T21:10:58.879Z,7.37
2018-08-08T21:13:26.708Z,8.20
2018-08-08T21:15:54.545Z,8.37
2018-08-08T21:18:22.360Z,8.00
2018-08-08T21:20:50.339Z,7.80
2018-08-08T21:23:18.153Z,9.20
2018-08-08T21:25:46.040Z,9.50
2018-08-08T21:28:13.869Z,8.30
2018-08-08T21:30:41.815Z,8.80
2018-08-08T21:33:16.108Z,8.70
2018-08-08T21:35:44.047Z,9.43
2018-08-08T21:38:11.925Z,10.17
2018-08-08T21:40:39.786Z,10.70
2018-08-08T21:43:07.633Z,10.30
2018-08-08T21:45:35.485Z,10.13
2018-08-08T21:48:03.566Z,10.17
2018-08-08T21:50:31.500Z,10.27
2018-08-08T21:52:59.324Z,10.00
2018-08-08T21:55:32.869Z,10.40
2018-08-08T21:58:06.468Z,10.60
2018-08-08T22:00:39.817Z,9.83
2018-08-08T22:03:13.463Z,10.10
2018-08-08T22:05:46.937Z,10.07
2018-08-08T22:08:20.601Z,10.40
2018-08-08T22:10:54.180Z,10.50
2018-08-08T22:13:27.770Z,10.70
2018-08-08T22:16:01.413Z,10.20
2018-08-08T22:18:34.913Z,10.07
2018-08-08T22:21:02.780Z,10.17
2018-08-08T22:23:30.635Z,11.30
2018-08-08T22:25:58.584Z,11.27
2018-08-08T22:28:26.444Z,10.37
2018-08-08T22:30:55.047Z,11.17
2018-08-08T22:33:23.756Z,9.30
2018-08-08T22:35:52.238Z,11.30
2018-08-08T22:38:20.100Z,11.13
2018-08-08T22:40:47.940Z,11.03
2018-08-08T22:43:15.800Z,10.10
2018-08-08T22:45:43.633Z,11.60
2018-08-08T22:48:11.680Z,11.30
2018-08-08T22:50:39.559Z,10.93
2018-08-08T22:53:07.413Z,11.73
2018-08-08T22:55:35.248Z,12.70
2018-08-08T22:58:03.125Z,11.50
2018-08-08T23:00:30.980Z,11.17
2018-08-08T23:02:58.923Z,11.23
2018-08-08T23:05:26.769Z,12.27
2018-08-08T23:07:54.645Z,10.83
2018-08-08T23:10:22.471Z,11.40
2018-08-08T23:12:50.345Z,11.70
2018-08-08T23:15:18.164Z,11.40
2018-08-08T23:17:46.021Z,10.73
2018-08-08T23:20:13.875Z,10.40
2018-08-08T23:22:47.251Z,11.90
2018-08-08T23:25:15.105Z,11.17
2018-08-08T23:27:42.985Z,10.60
2018-08-08T23:30:10.813Z,11.30
2018-08-08T23:32:38.748Z,10.83
2018-08-08T23:35:06.721Z,10.87
2018-08-08T23:37:34.629Z,11.17
2018-08-08T23:40:02.615Z,11.03
2018-08-08T23:42:30.537Z,10.97
2018-08-08T23:44:58.347Z,11.23
2018-08-08T23:47:26.191Z,10.30
2018-08-08T23:49:54.032Z,11.40
2018-08-08T23:52:21.911Z,10.77
2018-08-08T23:54:49.759Z,10.90
2018-08-08T23:57:17.593Z,10.67
2018-08-08T23:59:45.457Z,10.80
